Portada
METAR-TAF:

METAR-TAF

Aeroports :

Shelbyville, Tennessee, Estats Units d'Amèrica

latitud: 35-33-34N, longitud: 086-26-33W, altitud: 244 m

Observació

L'informe es va fer fa 15 minuts, a les 12:15 UTC
Vent 4 kt del Sud/Sud-Est
Temperatura 21°C
Humitat 83%
Pressió 1016 hPa
Visibilitat: 16.1 km
Cel clar

METAR: KSYI 221215Z AUTO 15004KT 10SM CLR 21/18 A2999 RMK A01

Hora: 07:30 (12:30 UTC)


TAF: manca

Observacions i pronòstics meteorològics de més de 4000 aeroports (METAR i TAF).

Les estacions disponibles són els punts grocs i vermells al mapa.

Posi el ratolí al punt desitjat per veure el nom de l'estació.

Feu clic per veure les observacions i els pronòstics meteorològics.

Per canviar el mapa: feu clic els botons verds amb una creu de color negre per apropar; al botó verd amb un guió per allunyar la imatge; o en les fletxes verdes per a mapes adjacents.


METAR-TAF: